Chaseville, New York
Current Conditions -  °F | °C
As of 11:15 AM on Tuesday 21 Oct 2014 (Local Time) from KNY0 Reporting Station
Overcast Overcast  
Wind Chill: 43°   Ceiling: 800
Heat Index: 46°   Visibility: 5mi
Dew Point: 44°   Wind: 6mph
Humidity: 95%   Direction: 60°ENE
Pressure: 29.91"   Gusts: NA
Location:  42.5423°N, 74.8983°W
Report Text: KNY0 211515Z AUTO 06005KT 5SM BKN008 OVC039 08/07 A2991 RMK AO2 T00760069
Loading
Personal Weather Stations






























Interactive Weather Map
Tropical Storm Tracking
New forecast layout! Learn more

10-Day Weather Forecast

Advertisements
Track Severe Weather on mobile